sensor_id;sensor_type;location;lat;lon;timestamp;pressure;altitude;pressure_sealevel;temperature;humidity
37716;BME280;23562;50.540;12.504;2022-09-20T00:01:06;55163.22;;;-139.61;100.00
37716;BME280;23562;50.540;12.504;2022-09-20T00:03:33;55163.22;;;-139.61;100.00
37716;BME280;23562;50.540;12.504;2022-09-20T00:06:02;55163.22;;;-139.61;100.00
37716;BME280;23562;50.540;12.504;2022-09-20T00:08:28;55163.22;;;-139.61;100.00
37716;BME280;23562;50.540;12.504;2022-09-20T00:11:01;55163.22;;;-139.61;100.00
37716;BME280;23562;50.540;12.504;2022-09-20T00:13:27;55163.22;;;-139.61;100.00
37716;BME280;23562;50.540;12.504;2022-09-20T00:15:53;55163.22;;;-139.61;100.00
37716;BME280;23562;50.540;12.504;2022-09-20T00:18:19;55163.22;;;-139.61;100.00
37716;BME280;23562;50.540;12.504;2022-09-20T00:20:45;55163.22;;;-139.61;100.00
37716;BME280;23562;50.540;12.504;2022-09-20T00:23:11;55163.22;;;-139.61;100.00
37716;BME280;23562;50.540;12.504;2022-09-20T00:25:36;55163.22;;;-139.61;100.00
37716;BME280;23562;50.540;12.504;2022-09-20T00:28:01;55163.22;;;-139.61;100.00
37716;BME280;23562;50.540;12.504;2022-09-20T00:30:27;55163.22;;;-139.61;100.00
37716;BME280;23562;50.540;12.504;2022-09-20T00:32:52;55163.22;;;-139.61;100.00
37716;BME280;23562;50.540;12.504;2022-09-20T00:35:17;55163.22;;;-139.61;100.00
37716;BME280;23562;50.540;12.504;2022-09-20T00:37:43;55163.22;;;-139.61;100.00
37716;BME280;23562;50.540;12.504;2022-09-20T00:40:13;55163.22;;;-139.61;100.00
37716;BME280;23562;50.540;12.504;2022-09-20T00:42:39;55163.22;;;-139.61;100.00
37716;BME280;23562;50.540;12.504;2022-09-20T00:45:07;55163.22;;;-139.61;100.00
37716;BME280;23562;50.540;12.504;2022-09-20T00:47:40;55163.22;;;-139.61;100.00
37716;BME280;23562;50.540;12.504;2022-09-20T00:50:11;55163.22;;;-139.61;100.00
37716;BME280;23562;50.540;12.504;2022-09-20T00:52:37;55163.22;;;-139.61;100.00
37716;BME280;23562;50.540;12.504;2022-09-20T00:55:06;55163.22;;;-139.61;100.00
37716;BME280;23562;50.540;12.504;2022-09-20T00:57:32;55163.22;;;-139.61;100.00
37716;BME280;23562;50.540;12.504;2022-09-20T01:00:02;55163.22;;;-139.61;100.00
37716;BME280;23562;50.540;12.504;2022-09-20T01:02:30;55163.22;;;-139.61;100.00
37716;BME280;23562;50.540;12.504;2022-09-20T01:04:58;55163.22;;;-139.61;100.00
37716;BME280;23562;50.540;12.504;2022-09-20T01:07:24;55163.22;;;-139.61;100.00
37716;BME280;23562;50.540;12.504;2022-09-20T01:09:50;55163.22;;;-139.61;100.00
37716;BME280;23562;50.540;12.504;2022-09-20T01:12:26;55163.22;;;-139.61;100.00
37716;BME280;23562;50.540;12.504;2022-09-20T01:14:54;55163.22;;;-139.61;100.00
37716;BME280;23562;50.540;12.504;2022-09-20T01:17:23;55163.22;;;-139.61;100.00
37716;BME280;23562;50.540;12.504;2022-09-20T01:25:52;55163.22;;;-139.61;100.00
37716;BME280;23562;50.540;12.504;2022-09-20T01:28:19;55163.22;;;-139.61;100.00
37716;BME280;23562;50.540;12.504;2022-09-20T01:35:52;94641.75;;;7.47;nan
37716;BME280;23562;50.540;12.504;2022-09-20T01:38:32;94722.69;;;7.86;nan
37716;BME280;23562;50.540;12.504;2022-09-20T01:41:03;94682.31;;;7.65;nan
37716;BME280;23562;50.540;12.504;2022-09-20T01:43:46;94625.53;;;7.30;nan
37716;BME280;23562;50.540;12.504;2022-09-20T01:51:53;94738.31;;;7.98;nan
37716;BME280;23562;50.540;12.504;2022-09-20T01:59:57;94710.75;;;7.71;nan
37716;BME280;23562;50.540;12.504;2022-09-20T02:03:05;94755.41;;;7.93;nan
37716;BME280;23562;50.540;12.504;2022-09-20T02:12:10;94732.97;;;7.67;nan
37716;BME280;23562;50.540;12.504;2022-09-20T02:15:02;94711.47;;;7.51;nan
37716;BME280;23562;50.540;12.504;2022-09-20T02:23:38;94758.28;;;7.79;nan
37716;BME280;23562;50.540;12.504;2022-09-20T02:26:26;94750.63;;;7.87;nan
37716;BME280;23562;50.540;12.504;2022-09-20T02:31:53;94756.59;;;7.89;nan
37716;BME280;23562;50.540;12.504;2022-09-20T02:39:49;94728.53;;;7.67;nan
37716;BME280;23562;50.540;12.504;2022-09-20T02:42:43;94725.81;;;7.58;nan
37716;BME280;23562;50.540;12.504;2022-09-20T02:45:17;94758.50;;;7.76;nan
37716;BME280;23562;50.540;12.504;2022-09-20T02:47:46;94712.19;;;7.41;nan
37716;BME280;23562;50.540;12.504;2022-09-20T02:50:23;94743.47;;;7.67;nan
37716;BME280;23562;50.540;12.504;2022-09-20T02:53:02;94767.56;;;7.83;nan
37716;BME280;23562;50.540;12.504;2022-09-20T02:56:00;94761.38;;;7.84;nan
37716;BME280;23562;50.540;12.504;2022-09-20T02:58:48;94764.13;;;7.82;nan
37716;BME280;23562;50.540;12.504;2022-09-20T03:01:43;94738.47;;;7.64;nan
37716;BME280;23562;50.540;12.504;2022-09-20T03:10:12;94687.88;;;7.28;nan
37716;BME280;23562;50.540;12.504;2022-09-20T03:15:26;94739.06;;;7.67;nan
37716;BME280;23562;50.540;12.504;2022-09-20T03:18:14;94774.53;;;7.84;nan
37716;BME280;23562;50.540;12.504;2022-09-20T03:20:53;94718.16;;;7.55;nan
37716;BME280;23562;50.540;12.504;2022-09-20T03:23:37;94720.56;;;7.47;nan
37716;BME280;23562;50.540;12.504;2022-09-20T03:28:54;94785.97;;;7.83;nan
37716;BME280;23562;50.540;12.504;2022-09-20T03:31:40;94774.66;;;7.82;nan
37716;BME280;23562;50.540;12.504;2022-09-20T03:34:32;94735.84;;;7.53;nan
37716;BME280;23562;50.540;12.504;2022-09-20T03:37:12;94770.84;;;7.64;nan
37716;BME280;23562;50.540;12.504;2022-09-20T03:39:54;94756.13;;;7.62;nan
37716;BME280;23562;50.540;12.504;2022-09-20T03:42:28;94774.28;;;7.76;nan
37716;BME280;23562;50.540;12.504;2022-09-20T03:45:21;94782.63;;;7.81;nan
37716;BME280;23562;50.540;12.504;2022-09-20T03:48:13;94775.50;;;7.61;nan
37716;BME280;23562;50.540;12.504;2022-09-20T03:50:49;94783.97;;;7.75;nan
37716;BME280;23562;50.540;12.504;2022-09-20T03:55:58;94743.50;;;7.45;nan
37716;BME280;23562;50.540;12.504;2022-09-20T04:03:55;94762.56;;;7.58;nan
37716;BME280;23562;50.540;12.504;2022-09-20T04:06:45;94731.06;;;7.47;nan
37716;BME280;23562;50.540;12.504;2022-09-20T04:09:19;94789.09;;;7.66;nan
37716;BME280;23562;50.540;12.504;2022-09-20T04:12:06;94777.16;;;7.62;nan
37716;BME280;23562;50.540;12.504;2022-09-20T04:18:00;94744.56;;;7.42;nan
37716;BME280;23562;50.540;12.504;2022-09-20T04:20:43;94710.66;;;7.28;nan
37716;BME280;23562;50.540;12.504;2022-09-20T04:23:21;94786.81;;;7.83;nan
37716;BME280;23562;50.540;12.504;2022-09-20T04:25:50;94770.25;;;7.61;nan
37716;BME280;23562;50.540;12.504;2022-09-20T04:28:29;94791.34;;;7.70;nan
37716;BME280;23562;50.540;12.504;2022-09-20T04:31:04;94760.31;;;7.53;nan
37716;BME280;23562;50.540;12.504;2022-09-20T04:33:35;94731.78;;;7.37;nan
37716;BME280;23562;50.540;12.504;2022-09-20T04:36:19;94793.13;;;7.81;nan
37716;BME280;23562;50.540;12.504;2022-09-20T04:39:02;94753.50;;;7.51;nan
37716;BME280;23562;50.540;12.504;2022-09-20T04:42:03;94793.13;;;7.81;nan
37716;BME280;23562;50.540;12.504;2022-09-20T04:44:51;94795.91;;;7.79;nan
37716;BME280;23562;50.540;12.504;2022-09-20T04:50:41;94798.41;;;7.81;nan
37716;BME280;23562;50.540;12.504;2022-09-20T04:56:30;94745.41;;;7.43;nan
37716;BME280;23562;50.540;12.504;2022-09-20T04:59:05;94757.69;;;7.53;nan
37716;BME280;23562;50.540;12.504;2022-09-20T05:01:38;94800.34;;;7.79;nan
37716;BME280;23562;50.540;12.504;2022-09-20T05:04:36;94812.50;;;7.80;nan
37716;BME280;23562;50.540;12.504;2022-09-20T05:07:38;94800.22;;;7.80;nan
37716;BME280;23562;50.540;12.504;2022-09-20T05:10:58;94806.06;;;7.73;nan
37716;BME280;23562;50.540;12.504;2022-09-20T05:13:54;94802.72;;;7.71;nan
37716;BME280;23562;50.540;12.504;2022-09-20T05:16:31;94769.53;;;7.48;nan
37716;BME280;23562;50.540;12.504;2022-09-20T05:21:57;94776.22;;;7.52;nan
37716;BME280;23562;50.540;12.504;2022-09-20T05:24:59;94809.88;;;7.69;nan
37716;BME280;23562;50.540;12.504;2022-09-20T05:27:49;94794.94;;;7.69;nan
37716;BME280;23562;50.540;12.504;2022-09-20T05:30:45;94822.78;;;7.83;nan
37716;BME280;23562;50.540;12.504;2022-09-20T05:33:19;94759.00;;;7.48;nan
37716;BME280;23562;50.540;12.504;2022-09-20T05:36:03;94823.63;;;7.83;nan
37716;BME280;23562;50.540;12.504;2022-09-20T05:38:46;94781.81;;;7.58;nan
37716;BME280;23562;50.540;12.504;2022-09-20T05:41:51;94824.69;;;7.81;nan
37716;BME280;23562;50.540;12.504;2022-09-20T05:44:23;94825.91;;;7.88;nan
37716;BME280;23562;50.540;12.504;2022-09-20T05:47:02;94816.19;;;7.77;nan
37716;BME280;23562;50.540;12.504;2022-09-20T05:49:51;94786.59;;;7.64;nan
37716;BME280;23562;50.540;12.504;2022-09-20T05:52:32;94810.59;;;7.82;nan
37716;BME280;23562;50.540;12.504;2022-09-20T05:55:37;94829.72;;;8.06;nan
37716;BME280;23562;50.540;12.504;2022-09-20T06:01:18;94810.22;;;7.97;nan
37716;BME280;23562;50.540;12.504;2022-09-20T06:03:52;94795.69;;;7.82;nan
37716;BME280;23562;50.540;12.504;2022-09-20T06:16:47;94826.00;;;7.97;nan
37716;BME280;23562;50.540;12.504;2022-09-20T06:21:55;94838.78;;;8.02;nan
37716;BME280;23562;50.540;12.504;2022-09-20T06:24:25;94841.41;;;8.02;nan
37716;BME280;23562;50.540;12.504;2022-09-20T06:26:54;94815.00;;;7.81;nan
37716;BME280;23562;50.540;12.504;2022-09-20T06:29:33;94829.81;;;7.93;nan
37716;BME280;23562;50.540;12.504;2022-09-20T06:32:00;94802.00;;;7.80;nan
37716;BME280;23562;50.540;12.504;2022-09-20T06:34:26;94787.78;;;7.71;nan
37716;BME280;23562;50.540;12.504;2022-09-20T06:37:11;94791.59;;;7.78;nan
37716;BME280;23562;50.540;12.504;2022-09-20T06:40:07;94840.69;;;8.22;nan
37716;BME280;23562;50.540;12.504;2022-09-20T06:42:57;94784.78;;;7.76;nan
37716;BME280;23562;50.540;12.504;2022-09-20T06:45:24;94812.50;;;8.02;nan
37716;BME280;23562;50.540;12.504;2022-09-20T06:47:50;94856.69;;;8.19;nan
37716;BME280;23562;50.540;12.504;2022-09-20T06:50:16;94853.13;;;8.20;nan
37716;BME280;23562;50.540;12.504;2022-09-20T06:52:41;94749.94;;;7.52;nan
37716;BME280;23562;50.540;12.504;2022-09-20T06:55:17;94805.22;;;7.94;nan
37716;BME280;23562;50.540;12.504;2022-09-20T06:57:45;94792.91;;;7.84;nan
37716;BME280;23562;50.540;12.504;2022-09-20T07:00:13;94849.88;;;8.27;nan
37716;BME280;23562;50.540;12.504;2022-09-20T07:02:40;94812.00;;;8.08;nan
37716;BME280;23562;50.540;12.504;2022-09-20T07:05:05;94762.69;;;7.78;nan
37716;BME280;23562;50.540;12.504;2022-09-20T07:07:31;94859.09;;;8.33;nan
37716;BME280;23562;50.540;12.504;2022-09-20T07:09:56;94816.44;;;8.07;nan
37716;BME280;23562;50.540;12.504;2022-09-20T07:12:22;94819.88;;;8.19;nan
37716;BME280;23562;50.540;12.504;2022-09-20T07:14:49;94856.69;;;8.41;nan
37716;BME280;23562;50.540;12.504;2022-09-20T07:17:14;94806.78;;;7.97;nan
37716;BME280;23562;50.540;12.504;2022-09-20T07:19:40;94828.72;;;8.18;nan
37716;BME280;23562;50.540;12.504;2022-09-20T07:22:05;94828.72;;;8.18;nan
37716;BME280;23562;50.540;12.504;2022-09-20T07:24:30;94840.94;;;7.97;nan
37716;BME280;23562;50.540;12.504;2022-09-20T07:27:01;94848.72;;;7.98;nan
37716;BME280;23562;50.540;12.504;2022-09-20T07:29:26;94862.78;;;8.08;nan
37716;BME280;23562;50.540;12.504;2022-09-20T07:31:52;94792.91;;;7.62;nan
37716;BME280;23562;50.540;12.504;2022-09-20T07:34:17;94881.19;;;8.19;nan
37716;BME280;23562;50.540;12.504;2022-09-20T07:36:45;94851.69;;;7.94;nan
37716;BME280;23562;50.540;12.504;2022-09-20T07:39:11;94861.25;;;8.06;nan
37716;BME280;23562;50.540;12.504;2022-09-20T07:41:36;94874.16;;;8.20;nan
37716;BME280;23562;50.540;12.504;2022-09-20T07:44:01;94878.72;;;8.29;nan
37716;BME280;23562;50.540;12.504;2022-09-20T07:46:50;94875.09;;;8.19;nan
37716;BME280;23562;50.540;12.504;2022-09-20T07:49:16;94907.41;;;8.43;nan
37716;BME280;23562;50.540;12.504;2022-09-20T07:51:42;94839.97;;;8.20;nan
37716;BME280;23562;50.540;12.504;2022-09-20T07:54:07;94833.75;;;8.32;nan
37716;BME280;23562;50.540;12.504;2022-09-20T07:56:33;94838.16;;;8.42;nan
37716;BME280;23562;50.540;12.504;2022-09-20T07:58:58;94896.28;;;8.93;nan
37716;BME280;23562;50.540;12.504;2022-09-20T08:01:24;94849.84;;;8.50;nan
37716;BME280;23562;50.540;12.504;2022-09-20T08:03:49;94697.41;;;7.52;nan
37716;BME280;23562;50.540;12.504;2022-09-20T08:06:16;94670.91;;;7.43;nan
37716;BME280;23562;50.540;12.504;2022-09-20T08:08:43;94889.63;;;8.67;nan
37716;BME280;23562;50.540;12.504;2022-09-20T08:11:14;94917.38;;;8.71;nan
37716;BME280;23562;50.540;12.504;2022-09-20T08:13:45;94890.91;;;8.30;nan
37716;BME280;23562;50.540;12.504;2022-09-20T08:16:11;94859.09;;;8.00;nan
37716;BME280;23562;50.540;12.504;2022-09-20T08:18:38;94917.91;;;8.43;nan
37716;BME280;23562;50.540;12.504;2022-09-20T08:21:05;94872.03;;;8.25;nan
37716;BME280;23562;50.540;12.504;2022-09-20T08:23:35;94924.69;;;8.68;nan
37716;BME280;23562;50.540;12.504;2022-09-20T08:26:00;94852.44;;;8.29;nan
37716;BME280;23562;50.540;12.504;2022-09-20T08:28:26;94829.69;;;8.28;nan
37716;BME280;23562;50.540;12.504;2022-09-20T08:30:52;94893.19;;;8.88;nan
37716;BME280;23562;50.540;12.504;2022-09-20T08:33:17;94862.78;;;8.95;nan
37716;BME280;23562;50.540;12.504;2022-09-20T08:35:42;94817.56;;;8.90;nan
37716;BME280;23562;50.540;12.504;2022-09-20T08:38:08;94908.72;;;9.55;nan
37716;BME280;23562;50.540;12.504;2022-09-20T08:40:33;94907.94;;;9.64;nan
37716;BME280;23562;50.540;12.504;2022-09-20T08:43:00;94777.38;;;8.88;nan
37716;BME280;23562;50.540;12.504;2022-09-20T08:45:26;94872.09;;;9.52;nan
37716;BME280;23562;50.540;12.504;2022-09-20T08:47:57;94915.72;;;9.65;nan
37716;BME280;23562;50.540;12.504;2022-09-20T08:50:24;94820.19;;;9.11;nan
37716;BME280;23562;50.540;12.504;2022-09-20T08:52:53;94941.50;;;9.62;nan
37716;BME280;23562;50.540;12.504;2022-09-20T08:55:28;94896.25;;;9.57;nan
37716;BME280;23562;50.540;12.504;2022-09-20T08:57:57;94918.22;;;9.67;nan
37716;BME280;23562;50.540;12.504;2022-09-20T09:00:31;94826.25;;;8.70;nan
37716;BME280;23562;50.540;12.504;2022-09-20T09:03:02;94809.44;;;8.82;nan
37716;BME280;23562;50.540;12.504;2022-09-20T09:05:37;94854.97;;;9.25;nan
37716;BME280;23562;50.540;12.504;2022-09-20T09:08:13;94862.25;;;9.33;nan
37716;BME280;23562;50.540;12.504;2022-09-20T09:10:42;94756.31;;;8.88;nan
37716;BME280;23562;50.540;12.504;2022-09-20T09:13:17;94892.00;;;9.86;nan
37716;BME280;23562;50.540;12.504;2022-09-20T09:15:45;94937.41;;;10.10;nan
37716;BME280;23562;50.540;12.504;2022-09-20T09:18:17;94882.34;;;9.96;nan
37716;BME280;23562;50.540;12.504;2022-09-20T09:20:42;94827.59;;;9.88;nan
37716;BME280;23562;50.540;12.504;2022-09-20T09:23:22;94931.91;;;10.52;nan
37716;BME280;23562;50.540;12.504;2022-09-20T09:25:50;94876.22;;;10.16;nan
37716;BME280;23562;50.540;12.504;2022-09-20T09:28:21;94914.66;;;10.09;nan
37716;BME280;23562;50.540;12.504;2022-09-20T09:30:47;94920.19;;;9.95;nan
37716;BME280;23562;50.540;12.504;2022-09-20T09:35:51;94945.75;;;9.74;nan
37716;BME280;23562;50.540;12.504;2022-09-20T09:38:19;94884.97;;;9.34;nan
37716;BME280;23562;50.540;12.504;2022-09-20T09:40:55;94943.88;;;9.44;nan
37716;BME280;23562;50.540;12.504;2022-09-20T09:43:23;94955.97;;;9.35;nan
37716;BME280;23562;50.540;12.504;2022-09-20T09:45:51;94822.91;;;8.68;nan
37716;BME280;23562;50.540;12.504;2022-09-20T09:48:26;94959.50;;;9.57;nan
37716;BME280;23562;50.540;12.504;2022-09-20T09:51:11;94947.09;;;9.68;nan
37716;BME280;23562;50.540;12.504;2022-09-20T09:53:40;94952.75;;;9.84;nan
37716;BME280;23562;50.540;12.504;2022-09-20T09:56:21;94906.25;;;9.63;nan
37716;BME280;23562;50.540;12.504;2022-09-20T09:59:05;94951.66;;;9.87;nan
37716;BME280;23562;50.540;12.504;2022-09-20T10:01:44;94812.50;;;9.19;nan
37716;BME280;23562;50.540;12.504;2022-09-20T10:04:34;94950.09;;;10.16;nan
37716;BME280;23562;50.540;12.504;2022-09-20T10:07:08;94905.09;;;9.97;nan
37716;BME280;23562;50.540;12.504;2022-09-20T10:09:53;94952.81;;;10.35;nan
37716;BME280;23562;50.540;12.504;2022-09-20T10:12:37;94883.13;;;9.87;nan
37716;BME280;23562;50.540;12.504;2022-09-20T10:15:22;94884.66;;;9.69;nan
37716;BME280;23562;50.540;12.504;2022-09-20T10:17:59;94949.38;;;10.14;nan
37716;BME280;23562;50.540;12.504;2022-09-20T10:20:45;94946.03;;;10.12;nan
37716;BME280;23562;50.540;12.504;2022-09-20T10:26:17;94927.59;;;10.01;nan
37716;BME280;23562;50.540;12.504;2022-09-20T10:31:50;94941.56;;;10.63;nan
37716;BME280;23562;50.540;12.504;2022-09-20T10:34:47;94887.59;;;10.56;nan
37716;BME280;23562;50.540;12.504;2022-09-20T10:37:40;94912.97;;;10.87;nan
37716;BME280;23562;50.540;12.504;2022-09-20T10:42:50;94933.00;;;10.90;nan
37716;BME280;23562;50.540;12.504;2022-09-20T10:48:47;94953.31;;;10.89;nan
37716;BME280;23562;50.540;12.504;2022-09-20T10:54:15;94938.03;;;11.02;nan
37716;BME280;23562;50.540;12.504;2022-09-20T10:56:51;94889.44;;;10.65;nan
37716;BME280;23562;50.540;12.504;2022-09-20T11:05:19;94964.66;;;10.80;nan
37716;BME280;23562;50.540;12.504;2022-09-20T11:08:00;94937.66;;;10.58;nan
37716;BME280;23562;50.540;12.504;2022-09-20T11:10:37;94937.06;;;10.54;nan
37716;BME280;23562;50.540;12.504;2022-09-20T11:15:48;94942.13;;;10.67;nan
37716;BME280;23562;50.540;12.504;2022-09-20T11:18:21;94916.97;;;10.72;nan
37716;BME280;23562;50.540;12.504;2022-09-20T11:21:20;94969.78;;;11.21;nan
37716;BME280;23562;50.540;12.504;2022-09-20T11:23:53;94963.84;;;11.38;nan
37716;BME280;23562;50.540;12.504;2022-09-20T11:26:45;94932.81;;;11.50;nan
37716;BME280;23562;50.540;12.504;2022-09-20T11:29:25;94923.94;;;11.80;nan
37716;BME280;23562;50.540;12.504;2022-09-20T11:31:55;94928.78;;;11.94;nan
37716;BME280;23562;50.540;12.504;2022-09-20T11:34:31;94977.06;;;12.24;nan
37716;BME280;23562;50.540;12.504;2022-09-20T11:36:59;94912.22;;;11.44;nan
37716;BME280;23562;50.540;12.504;2022-09-20T11:39:41;94975.97;;;11.70;nan
37716;BME280;23562;50.540;12.504;2022-09-20T11:42:17;94933.91;;;11.28;nan
37716;BME280;23562;50.540;12.504;2022-09-20T11:44:44;94938.94;;;11.31;nan
37716;BME280;23562;50.540;12.504;2022-09-20T11:47:16;94933.34;;;11.34;nan
37716;BME280;23562;50.540;12.504;2022-09-20T11:55:46;94978.47;;;11.62;nan
37716;BME280;23562;50.540;12.504;2022-09-20T11:58:15;94866.03;;;11.00;nan
37716;BME280;23562;50.540;12.504;2022-09-20T12:00:45;94950.06;;;11.64;nan
37716;BME280;23562;50.540;12.504;2022-09-20T12:05:57;94974.69;;;12.12;nan
37716;BME280;23562;50.540;12.504;2022-09-20T12:08:32;94930.28;;;12.06;nan
37716;BME280;23562;50.540;12.504;2022-09-20T12:11:05;94984.22;;;12.60;nan
37716;BME280;23562;50.540;12.504;2022-09-20T12:13:34;94984.97;;;12.80;nan
37716;BME280;23562;50.540;12.504;2022-09-20T12:16:05;94986.56;;;13.00;nan
37716;BME280;23562;50.540;12.504;2022-09-20T12:21:14;94951.84;;;12.94;nan
37716;BME280;23562;50.540;12.504;2022-09-20T12:23:59;94978.50;;;12.92;nan
37716;BME280;23562;50.540;12.504;2022-09-20T12:28:57;94969.94;;;12.71;nan
37716;BME280;23562;50.540;12.504;2022-09-20T12:39:20;94979.44;;;12.64;nan
37716;BME280;23562;50.540;12.504;2022-09-20T12:42:20;94976.09;;;12.62;nan
37716;BME280;23562;50.540;12.504;2022-09-20T12:52:36;94985.28;;;13.04;nan
37716;BME280;23562;50.540;12.504;2022-09-20T12:58:27;94953.75;;;12.74;nan
37716;BME280;23562;50.540;12.504;2022-09-20T13:09:00;94983.13;;;13.62;nan
37716;BME280;23562;50.540;12.504;2022-09-20T13:11:42;94966.81;;;13.39;nan
37716;BME280;23562;50.540;12.504;2022-09-20T13:14:13;94907.06;;;13.00;nan
37716;BME280;23562;50.540;12.504;2022-09-20T13:16:51;94946.13;;;13.25;nan
37716;BME280;23562;50.540;12.504;2022-09-20T13:19:34;94967.41;;;13.33;nan
37716;BME280;23562;50.540;12.504;2022-09-20T13:22:28;94980.41;;;13.54;nan
37716;BME280;23562;50.540;12.504;2022-09-20T13:24:58;94894.16;;;13.15;nan
37716;BME280;23562;50.540;12.504;2022-09-20T13:27:29;94971.41;;;13.64;nan
37716;BME280;23562;50.540;12.504;2022-09-20T13:32:45;94935.22;;;13.28;nan
37716;BME280;23562;50.540;12.504;2022-09-20T13:35:19;94905.56;;;13.15;nan
37716;BME280;23562;50.540;12.504;2022-09-20T13:37:57;94988.44;;;13.62;nan
37716;BME280;23562;50.540;12.504;2022-09-20T13:42:59;94890.16;;;12.74;nan
37716;BME280;23562;50.540;12.504;2022-09-20T13:45:26;94953.75;;;13.11;nan
37716;BME280;23562;50.540;12.504;2022-09-20T13:47:53;94950.72;;;12.96;nan
37716;BME280;23562;50.540;12.504;2022-09-20T13:52:53;94926.09;;;12.86;nan
37716;BME280;23562;50.540;12.504;2022-09-20T13:55:27;94939.75;;;12.91;nan
37716;BME280;23562;50.540;12.504;2022-09-20T13:57:54;94904.78;;;12.51;nan
37716;BME280;23562;50.540;12.504;2022-09-20T14:00:21;94912.16;;;12.57;nan
37716;BME280;23562;50.540;12.504;2022-09-20T14:02:47;94960.25;;;12.89;nan
37716;BME280;23562;50.540;12.504;2022-09-20T14:05:18;94943.66;;;12.87;nan
37716;BME280;23562;50.540;12.504;2022-09-20T14:07:44;94988.94;;;13.30;nan
37716;BME280;23562;50.540;12.504;2022-09-20T14:10:28;94957.81;;;13.05;nan
37716;BME280;23562;50.540;12.504;2022-09-20T14:12:56;94929.72;;;12.85;nan
37716;BME280;23562;50.540;12.504;2022-09-20T14:15:22;94933.94;;;12.78;nan
37716;BME280;23562;50.540;12.504;2022-09-20T14:17:49;94948.97;;;12.87;nan
37716;BME280;23562;50.540;12.504;2022-09-20T14:20:16;94949.66;;;12.89;nan
37716;BME280;23562;50.540;12.504;2022-09-20T14:22:42;94958.22;;;13.01;nan
37716;BME280;23562;50.540;12.504;2022-09-20T14:27:36;94849.09;;;12.43;nan
37716;BME280;23562;50.540;12.504;2022-09-20T14:30:03;94975.09;;;13.09;nan
37716;BME280;23562;50.540;12.504;2022-09-20T14:32:42;94988.94;;;13.30;nan
37716;BME280;23562;50.540;12.504;2022-09-20T14:35:20;94959.97;;;13.19;nan
37716;BME280;23562;50.540;12.504;2022-09-20T14:37:53;94985.94;;;13.60;nan
37716;BME280;23562;50.540;12.504;2022-09-20T14:40:28;94989.13;;;13.82;nan
37716;BME280;23562;50.540;12.504;2022-09-20T14:42:59;94989.50;;;14.04;nan
37716;BME280;23562;50.540;12.504;2022-09-20T14:45:33;94973.34;;;13.98;nan
37716;BME280;23562;50.540;12.504;2022-09-20T14:50:38;94992.94;;;14.32;nan
37716;BME280;23562;50.540;12.504;2022-09-20T14:55:36;95001.16;;;14.46;nan
37716;BME280;23562;50.540;12.504;2022-09-20T14:58:13;94950.25;;;14.16;nan
37716;BME280;23562;50.540;12.504;2022-09-20T15:00:48;95003.03;;;14.54;nan
37716;BME280;23562;50.540;12.504;2022-09-20T15:03:18;94963.63;;;14.24;nan
37716;BME280;23562;50.540;12.504;2022-09-20T15:05:49;95016.28;;;14.46;nan
37716;BME280;23562;50.540;12.504;2022-09-20T15:08:14;94865.75;;;13.42;nan
37716;BME280;23562;50.540;12.504;2022-09-20T15:10:41;94884.53;;;13.31;nan
37716;BME280;23562;50.540;12.504;2022-09-20T15:13:09;94954.41;;;13.57;nan
37716;BME280;23562;50.540;12.504;2022-09-20T15:15:34;94861.13;;;12.82;nan
37716;BME280;23562;50.540;12.504;2022-09-20T15:18:00;94959.47;;;13.06;nan
37716;BME280;23562;50.540;12.504;2022-09-20T15:20:25;94795.13;;;11.80;nan
37716;BME280;23562;50.540;12.504;2022-09-20T15:22:50;95017.44;;;12.82;nan
37716;BME280;23562;50.540;12.504;2022-09-20T15:25:18;94834.28;;;11.57;nan
37716;BME280;23562;50.540;12.504;2022-09-20T15:27:46;95052.78;;;12.63;nan
37716;BME280;23562;50.540;12.504;2022-09-20T15:30:13;95006.88;;;12.17;nan
37716;BME280;23562;50.540;12.504;2022-09-20T15:32:43;95041.56;;;12.17;nan
37716;BME280;23562;50.540;12.504;2022-09-20T15:37:34;94978.69;;;11.20;nan
37716;BME280;23562;50.540;12.504;2022-09-20T15:47:16;94999.03;;;10.60;nan
37716;BME280;23562;50.540;12.504;2022-09-20T15:52:06;94893.09;;;10.34;nan
37716;BME280;23562;50.540;12.504;2022-09-20T16:01:47;95139.09;;;10.58;nan
37716;BME280;23562;50.540;12.504;2022-09-20T16:11:32;95078.06;;;10.31;nan
37716;BME280;23562;50.540;12.504;2022-09-20T16:13:58;95017.91;;;9.73;nan
37716;BME280;23562;50.540;12.504;2022-09-20T16:16:28;95018.88;;;9.92;nan
37716;BME280;23562;50.540;12.504;2022-09-20T16:21:39;95030.28;;;9.93;nan
37716;BME280;23562;50.540;12.504;2022-09-20T16:24:05;95031.19;;;10.03;nan
37716;BME280;23562;50.540;12.504;2022-09-20T16:26:31;95025.25;;;9.90;nan
37716;BME280;23562;50.540;12.504;2022-09-20T16:31:31;95003.25;;;9.80;nan
37716;BME280;23562;50.540;12.504;2022-09-20T16:38:52;95021.47;;;9.72;nan
37716;BME280;23562;50.540;12.504;2022-09-20T16:41:20;94920.78;;;9.36;nan
37716;BME280;23562;50.540;12.504;2022-09-20T16:43:47;95045.91;;;9.74;nan
37716;BME280;23562;50.540;12.504;2022-09-20T16:51:04;95064.59;;;9.82;nan
37716;BME280;23562;50.540;12.504;2022-09-20T17:17:52;109887.09;;;24.90;100.00
37716;BME280;23562;50.540;12.504;2022-09-20T17:27:33;94919.59;;;8.98;nan
37716;BME280;23562;50.540;12.504;2022-09-20T18:16:15;55163.22;;;-139.61;100.00
37716;BME280;23562;50.540;12.504;2022-09-20T18:26:20;55163.22;;;-139.61;100.00
37716;BME280;23562;50.540;12.504;2022-09-20T18:31:10;43287.19;;;24.90;100.00
37716;BME280;23562;50.540;12.504;2022-09-20T18:33:36;109897.84;;;24.90;100.00
37716;BME280;23562;50.540;12.504;2022-09-20T19:33:52;147312.66;;;24.90;100.00
37716;BME280;23562;50.540;12.504;2022-09-20T21:03:27;43190.91;;;24.90;0.00
37716;BME280;23562;50.540;12.504;2022-09-20T21:59:14;147129.25;;;24.90;100.00
37716;BME280;23562;50.540;12.504;2022-09-20T22:01:40;109873.06;;;24.90;100.00
37716;BME280;23562;50.540;12.504;2022-09-20T22:43:23;55163.22;;;-139.61;100.00